Time;durP1;ratioP1;P1;durP2;ratioP2;P2;SDS_P1;SDS_P2;PMS_P1;PMS_P2;Temp;Humidity;BMP_temperature;BMP_pressure;BME280_temperature;BME280_humidity;BME280_pressure;Samples;Min_cycle;Max_cycle;Signal;HPM_P1;HPM_P2
2021/01/02 00:01:18;;;;;;;18.83;11.80;;;;;;;18.67;39.44;100396.31;4670871;28;9999629;-76
2021/01/02 00:03:50;;;;;;;16.65;12.40;;;;;;;18.67;39.44;100399.78;4989565;28;20057;-76
2021/01/02 00:06:27;;;;;;;15.15;12.32;;;;;;;18.66;39.40;100392.78;5008115;28;20092;-76
2021/01/02 00:09:05;;;;;;;14.98;11.52;;;;;;;18.64;39.54;100397.31;5008262;28;20144;-76
2021/01/02 00:11:45;;;;;;;11.75;10.43;;;;;;;18.66;39.24;100399.88;5004865;28;20042;-76
2021/01/02 00:14:41;;;;;;;16.70;11.10;;;;;;;18.62;39.35;100398.31;4993274;28;20045;-75
2021/01/02 00:17:34;;;;;;;15.25;12.18;;;;;;;18.57;39.28;100395.84;5005605;28;20044;-76
2021/01/02 00:20:07;;;;;;;14.68;12.50;;;;;;;18.60;39.35;100400.16;5019540;28;20029;-76
2021/01/02 00:22:55;;;;;;;15.30;12.68;;;;;;;18.55;39.21;100397.72;4974146;28;20056;-76
2021/01/02 00:25:29;;;;;;;15.35;12.68;;;;;;;18.58;39.36;100402.03;4977981;28;20084;-76
2021/01/02 00:28:23;;;;;;;13.98;11.32;;;;;;;18.56;39.16;100402.06;5005196;28;20045;-75
2021/01/02 00:31:01;;;;;;;12.85;11.40;;;;;;;18.57;39.67;100400.31;5008074;28;20423;-76
2021/01/02 00:34:10;;;;;;;14.23;12.02;;;;;;;18.55;42.12;100407.47;5009557;28;20050;-76
2021/01/02 00:36:56;;;;;;;14.77;12.10;;;;;;;18.50;41.72;100411.19;4963266;28;20054;-75
2021/01/02 00:40:11;;;;;;;16.95;12.27;;;;;;;18.49;41.27;100403.31;5010994;28;20042;-76
2021/01/02 00:42:43;;;;;;;15.13;12.32;;;;;;;18.46;41.58;100409.63;4974991;28;20049;-75
2021/01/02 00:45:12;;;;;;;16.65;12.93;;;;;;;18.48;41.09;100410.38;5010616;28;20038;-75
2021/01/02 00:47:41;;;;;;;14.40;11.85;;;;;;;18.47;41.58;100414.00;4991448;28;20041;-76
2021/01/02 00:50:14;;;;;;;18.80;13.27;;;;;;;18.44;41.78;100406.16;5023653;28;20041;-76
2021/01/02 00:52:56;;;;;;;13.48;12.00;;;;;;;18.49;41.54;100417.41;5002217;28;20465;-75
2021/01/02 00:55:25;;;;;;;15.25;12.35;;;;;;;18.44;41.00;100411.47;5008423;28;20030;-75
2021/01/02 00:58:13;;;;;;;15.93;12.63;;;;;;;18.43;41.20;100415.03;5008026;28;20121;-76
2021/01/02 01:00:43;;;;;;;13.95;12.48;;;;;;;18.46;41.47;100414.03;5010190;28;20607;-76
2021/01/02 01:03:33;;;;;;;18.08;13.10;;;;;;;18.47;40.69;100421.06;5023723;28;20154;-76
2021/01/02 01:06:02;;;;;;;14.98;12.90;;;;;;;18.46;40.87;100428.16;5008936;28;20041;-75
2021/01/02 01:08:32;;;;;;;15.38;11.68;;;;;;;18.42;40.86;100425.72;5012118;28;20049;-76
2021/01/02 01:11:09;;;;;;;16.02;11.95;;;;;;;18.42;41.42;100437.19;4977237;28;20072;-76
2021/01/02 01:13:37;;;;;;;14.18;11.90;;;;;;;18.41;41.35;100423.97;5009554;28;20064;-75
2021/01/02 01:16:03;;;;;;;14.48;12.07;;;;;;;18.40;41.19;100432.88;4975552;28;20048;-75
2021/01/02 01:19:01;;;;;;;13.27;11.98;;;;;;;18.37;41.15;100428.59;4992547;28;20117;-75
2021/01/02 01:21:29;;;;;;;14.10;11.65;;;;;;;18.42;41.02;100420.41;5009089;28;20421;-76
2021/01/02 01:24:54;;;;;;;17.98;12.25;;;;;;;18.40;41.07;100431.09;5027118;28;20041;-75
2021/01/02 01:27:53;;;;;;;15.13;12.57;;;;;;;18.41;41.07;100434.59;4979875;28;20315;-75
2021/01/02 01:30:22;;;;;;;16.85;13.43;;;;;;;18.37;40.67;100436.53;5026845;28;20055;-75
2021/01/02 01:33:12;;;;;;;13.55;12.13;;;;;;;18.38;41.07;100440.03;5011267;28;20511;-76
2021/01/02 01:35:43;;;;;;;14.85;12.82;;;;;;;18.41;41.12;100442.53;5011282;28;20070;-75
2021/01/02 01:38:16;;;;;;;15.23;12.73;;;;;;;18.37;40.95;100440.97;5026129;28;20110;-75
2021/01/02 01:40:44;;;;;;;13.73;11.50;;;;;;;18.37;40.86;100441.84;5022364;28;20134;-76
2021/01/02 01:43:23;;;;;;;19.65;12.82;;;;;;;18.35;40.52;100439.25;5011469;28;20045;-75
2021/01/02 01:46:12;;;;;;;13.57;12.13;;;;;;;18.29;40.93;100441.28;5027191;28;20049;-75
2021/01/02 01:49:09;;;;;;;14.70;12.23;;;;;;;18.33;40.51;100445.56;4995069;28;20041;-76
2021/01/02 01:52:02;;;;;;;13.30;11.88;;;;;;;18.35;40.69;100449.84;4972359;28;20052;-75
2021/01/02 01:55:04;;;;;;;14.20;12.60;;;;;;;18.33;40.95;100443.75;4993602;28;20033;-75
2021/01/02 01:57:36;;;;;;;14.18;12.68;;;;;;;18.35;40.75;100446.34;4995489;28;20057;-76
2021/01/02 02:00:14;;;;;;;13.60;11.50;;;;;;;18.35;40.99;100446.34;4991704;28;20479;-75
2021/01/02 02:02:46;;;;;;;13.50;12.07;;;;;;;18.33;40.89;100448.22;4998114;28;20037;-75
2021/01/02 02:05:33;;;;;;;14.60;12.48;;;;;;;18.30;40.92;100451.84;5008291;28;20050;-76
2021/01/02 02:08:08;;;;;;;14.77;12.60;;;;;;;18.32;40.74;100449.97;4980133;28;20067;-76
2021/01/02 02:11:03;;;;;;;14.27;11.85;;;;;;;18.31;40.72;100450.91;4974226;28;20037;-76
2021/01/02 02:13:44;;;;;;;15.50;12.45;;;;;;;18.32;40.55;100446.47;4991487;28;20481;-75
2021/01/02 02:16:11;;;;;;;15.65;12.20;;;;;;;18.30;40.95;100446.56;4980042;28;21072;-75
2021/01/02 02:18:56;;;;;;;15.63;12.35;;;;;;;18.31;40.68;100452.69;4993164;28;20172;-75
2021/01/02 02:21:28;;;;;;;13.98;11.73;;;;;;;18.29;40.87;100449.25;4974919;28;20401;-76
2021/01/02 02:24:01;;;;;;;16.02;12.77;;;;;;;18.26;40.84;100447.59;4993528;28;20050;-75
2021/01/02 02:26:32;;;;;;;15.35;11.90;;;;;;;18.29;40.76;100450.13;5008012;28;20045;-75
2021/01/02 02:29:22;;;;;;;13.70;11.93;;;;;;;18.26;40.55;100444.09;5027734;28;20037;-75
2021/01/02 02:31:48;;;;;;;14.13;12.30;;;;;;;18.29;40.46;100444.81;5022181;28;20377;-76
2021/01/02 02:34:14;;;;;;;13.93;11.82;;;;;;;18.27;40.42;100449.31;5008618;28;20057;-75
2021/01/02 02:36:42;;;;;;;17.42;12.55;;;;;;;18.27;40.30;100445.81;5009279;28;20095;-76
2021/01/02 02:39:13;;;;;;;14.20;12.57;;;;;;;18.26;40.56;100447.59;4983971;28;20109;-75
2021/01/02 02:41:51;;;;;;;14.77;12.73;;;;;;;18.26;40.75;100447.59;4976142;28;20042;-75
2021/01/02 02:44:24;;;;;;;14.73;13.15;;;;;;;18.22;40.66;100442.50;5027994;28;20049;-75
2021/01/02 02:46:55;;;;;;;16.27;12.80;;;;;;;18.29;40.57;100443.94;5011004;28;20129;-75
2021/01/02 02:49:23;;;;;;;15.52;13.05;;;;;;;18.25;40.43;100437.94;4979435;28;20037;-75
2021/01/02 02:52:05;;;;;;;17.05;13.10;;;;;;;18.27;40.67;100449.31;5008360;28;20088;-76
2021/01/02 02:54:30;;;;;;;14.43;12.77;;;;;;;18.27;40.59;100445.81;4977046;28;20049;-75
2021/01/02 02:56:56;;;;;;;14.43;12.60;;;;;;;18.24;40.53;100446.81;4996355;28;20041;-75
2021/01/02 02:59:22;;;;;;;14.25;12.75;;;;;;;18.21;40.63;100446.09;4991287;28;20042;-76
2021/01/02 03:01:48;;;;;;;14.80;12.85;;;;;;;18.25;40.25;100450.31;5009619;28;20037;-75
2021/01/02 03:04:15;;;;;;;15.07;13.18;;;;;;;18.22;40.47;100447.81;4998107;28;20045;-75
2021/01/02 03:06:42;;;;;;;16.55;14.07;;;;;;;18.19;40.32;100444.34;4975370;28;20064;-76
2021/01/02 03:09:10;;;;;;;16.70;14.18;;;;;;;18.20;40.25;100450.53;5028259;28;20045;-75
2021/01/02 03:11:35;;;;;;;15.80;13.05;;;;;;;18.20;40.32;100450.53;5007273;28;20125;-76
2021/01/02 03:14:01;;;;;;;15.55;13.23;;;;;;;18.23;40.17;100455.69;5011475;28;20057;-76
2021/01/02 03:16:27;;;;;;;14.57;12.60;;;;;;;18.21;40.65;100460.19;4992625;28;20360;-76
2021/01/02 03:18:52;;;;;;;15.30;12.43;;;;;;;18.20;40.19;100453.19;4994502;28;20503;-75
2021/01/02 03:21:18;;;;;;;15.23;13.40;;;;;;;18.20;40.11;100461.13;4974832;28;20045;-75
2021/01/02 03:23:47;;;;;;;17.55;13.20;;;;;;;18.21;40.42;100462.81;5025236;28;20136;-75
2021/01/02 03:26:15;;;;;;;19.58;15.00;;;;;;;18.18;40.24;100462.97;5009685;28;20045;-76
2021/01/02 03:28:51;;;;;;;14.75;12.90;;;;;;;18.18;40.38;100465.63;5009936;28;20042;-75
2021/01/02 03:31:20;;;;;;;15.57;13.07;;;;;;;18.21;40.24;100465.47;4990857;28;20056;-75
2021/01/02 03:33:46;;;;;;;16.55;12.82;;;;;;;18.18;40.54;100470.94;4993982;28;20751;-75
2021/01/02 03:36:12;;;;;;;17.13;13.80;;;;;;;18.15;40.57;100463.13;4991595;28;20072;-76
2021/01/02 03:38:39;;;;;;;16.20;13.20;;;;;;;18.14;40.24;100467.53;4995860;28;20180;-75
2021/01/02 03:41:05;;;;;;;18.35;14.20;;;;;;;18.19;39.74;100462.06;4993162;28;20037;-75
2021/01/02 03:43:31;;;;;;;14.98;13.45;;;;;;;18.16;40.45;100462.16;5007265;28;20125;-75
2021/01/02 03:45:57;;;;;;;16.08;13.70;;;;;;;18.19;40.10;100462.06;4995572;28;20525;-75
2021/01/02 03:48:23;;;;;;;15.55;13.68;;;;;;;18.14;40.34;100459.59;4992516;28;20472;-75
2021/01/02 03:50:48;;;;;;;18.05;14.68;;;;;;;18.17;40.27;100464.78;4996252;28;20040;-75
2021/01/02 03:53:14;;;;;;;16.00;13.60;;;;;;;18.14;40.41;100464.88;4976714;28;21899;-75
2021/01/02 03:55:42;;;;;;;14.98;12.88;;;;;;;18.12;39.87;100461.47;4992840;28;20037;-75
2021/01/02 03:58:08;;;;;;;14.88;13.27;;;;;;;18.13;40.30;100460.53;5008554;28;20050;-75
2021/01/02 04:00:34;;;;;;;17.17;13.90;;;;;;;18.12;39.97;100458.81;4989176;28;20053;-74
2021/01/02 04:03:00;;;;;;;16.35;13.70;;;;;;;18.13;40.17;100457.00;4976998;28;20042;-75
2021/01/02 04:05:25;;;;;;;15.43;13.13;;;;;;;18.13;39.87;100449.06;4992685;28;20696;-75
2021/01/02 04:07:51;;;;;;;14.40;12.90;;;;;;;18.10;40.13;100455.38;4990482;28;20403;-75
2021/01/02 04:10:17;;;;;;;13.73;12.23;;;;;;;18.12;40.04;100455.28;5007369;28;20148;-75
2021/01/02 04:12:42;;;;;;;16.23;14.05;;;;;;;18.14;39.93;100458.75;4974402;28;21437;-75
2021/01/02 04:15:08;;;;;;;15.30;12.50;;;;;;;18.11;39.90;100458.88;4993574;28;20037;-75
2021/01/02 04:17:34;;;;;;;16.60;12.48;;;;;;;18.13;40.07;100451.72;5007229;28;20399;-75
2021/01/02 04:20:00;;;;;;;13.57;12.23;;;;;;;18.14;40.10;100453.44;4992686;28;20049;-76
2021/01/02 04:22:27;;;;;;;14.73;12.35;;;;;;;18.14;40.12;100458.75;5025333;28;20077;-75
2021/01/02 04:24:52;;;;;;;14.60;12.85;;;;;;;18.09;40.25;100458.94;5025021;28;20041;-75
2021/01/02 04:27:18;;;;;;;14.25;12.73;;;;;;;18.12;39.93;100455.28;5009805;28;20800;-75
2021/01/02 04:29:43;;;;;;;17.38;12.77;;;;;;;18.08;39.85;100454.59;5007809;28;20564;-75
2021/01/02 04:32:09;;;;;;;16.52;14.05;;;;;;;18.06;39.93;100464.38;4990680;28;20049;-75
2021/01/02 04:34:35;;;;;;;14.35;12.23;;;;;;;18.05;39.84;100464.44;4997685;28;20084;-75
2021/01/02 04:37:01;;;;;;;14.25;12.35;;;;;;;18.08;40.14;100461.66;4979235;28;20108;-75
2021/01/02 04:39:27;;;;;;;14.02;12.32;;;;;;;18.11;39.85;100461.53;4980976;28;20045;-75
2021/01/02 04:41:56;;;;;;;18.83;12.85;;;;;;;18.09;40.12;100455.44;4977552;28;20124;-75
2021/01/02 04:44:22;;;;;;;13.15;11.57;;;;;;;18.11;39.88;100464.19;4996490;28;20487;-76
2021/01/02 04:46:47;;;;;;;17.10;13.65;;;;;;;18.08;39.78;100459.88;4998976;28;20180;-75
2021/01/02 04:49:13;;;;;;;12.60;11.25;;;;;;;18.07;40.05;100455.50;4996386;28;20600;-75
2021/01/02 04:51:39;;;;;;;14.23;12.68;;;;;;;18.08;39.78;100461.66;4993834;28;20164;-76
2021/01/02 04:54:06;;;;;;;13.15;11.68;;;;;;;18.07;40.01;100462.56;4982070;28;20511;-75
2021/01/02 04:56:38;;;;;;;13.57;11.98;;;;;;;18.07;39.98;100466.09;5026539;28;20097;-76
2021/01/02 04:59:12;;;;;;;14.10;11.63;;;;;;;18.07;40.21;100462.56;4984019;28;20068;-75
2021/01/02 05:01:40;;;;;;;12.70;11.48;;;;;;;18.06;39.97;100458.22;4994712;28;20147;-75
2021/01/02 05:04:09;;;;;;;14.68;11.77;;;;;;;18.06;40.09;100464.38;5029059;28;20804;-76
2021/01/02 05:06:36;;;;;;;13.73;11.27;;;;;;;18.05;40.25;100464.44;5010129;28;20554;-75
2021/01/02 05:09:05;;;;;;;13.82;12.43;;;;;;;18.02;40.34;100463.63;4999310;28;20046;-75
2021/01/02 05:11:36;;;;;;;14.43;12.93;;;;;;;18.05;39.92;100464.44;4992001;28;20041;-75
2021/01/02 05:14:04;;;;;;;13.95;12.32;;;;;;;18.05;39.89;100467.09;4979108;28;20048;-76
2021/01/02 05:19:07;;;;;;;12.93;11.48;;;;;;;18.06;40.14;100471.47;4996257;28;20043;-75
2021/01/02 05:21:36;;;;;;;13.80;11.75;;;;;;;18.03;40.09;100477.75;4993236;28;20045;-76
2021/01/02 05:24:09;;;;;;;13.82;11.50;;;;;;;18.02;39.74;100479.53;5009873;28;20037;-76
2021/01/02 05:26:40;;;;;;;14.25;12.80;;;;;;;17.99;40.01;100479.66;5027019;28;20319;-76
2021/01/02 05:29:23;;;;;;;13.60;12.23;;;;;;;18.05;39.70;100481.19;4999204;28;20097;-75
2021/01/02 05:31:52;;;;;;;13.07;11.57;;;;;;;18.01;39.79;100488.41;5007022;28;20037;-76
2021/01/02 05:34:21;;;;;;;16.33;12.25;;;;;;;18.05;39.91;100486.47;4998508;28;20374;-75
2021/01/02 05:37:02;;;;;;;13.98;12.48;;;;;;;18.02;39.91;100486.63;4994634;28;20041;-75
2021/01/02 05:39:43;;;;;;;13.18;11.55;;;;;;;18.00;39.91;100493.75;4982192;28;20040;-76
2021/01/02 05:42:09;;;;;;;16.35;14.15;;;;;;;18.04;39.95;100494.50;5006502;28;20030;-75
2021/01/02 05:44:39;;;;;;;12.18;10.93;;;;;;;17.99;40.01;100495.56;4978650;28;20026;-75
2021/01/02 05:47:06;;;;;;;15.52;11.27;;;;;;;17.98;39.95;100493.84;5010896;28;20129;-75
2021/01/02 05:49:39;;;;;;;14.23;12.73;;;;;;;18.00;40.10;100497.28;5029561;28;20054;-75
2021/01/02 05:52:10;;;;;;;14.55;12.98;;;;;;;18.00;39.91;100499.94;4978691;28;20052;-75
2021/01/02 05:54:50;;;;;;;12.68;11.48;;;;;;;18.01;39.61;100495.50;5008468;28;20041;-75
2021/01/02 05:57:29;;;;;;;14.95;12.13;;;;;;;17.96;39.75;100498.31;5010805;28;20034;-76
2021/01/02 05:59:57;;;;;;;13.57;11.82;;;;;;;18.01;40.00;100490.19;5008994;28;20056;-75
2021/01/02 06:02:24;;;;;;;12.95;11.63;;;;;;;18.00;39.78;100493.75;5024042;28;20058;-75
2021/01/02 06:05:10;;;;;;;13.25;11.32;;;;;;;17.99;40.00;100500.88;5015345;28;20967;-75
2021/01/02 06:07:40;;;;;;;13.18;11.68;;;;;;;18.01;39.73;100500.78;5027077;28;20529;-75
2021/01/02 06:10:09;;;;;;;13.70;11.45;;;;;;;18.02;39.68;100502.53;4995740;28;20045;-76
2021/01/02 06:12:41;;;;;;;14.38;12.43;;;;;;;17.97;39.93;100505.34;4992569;28;20054;-75
2021/01/02 06:15:11;;;;;;;16.63;12.65;;;;;;;17.96;39.66;100505.41;4991456;28;20053;-75
2021/01/02 06:17:48;;;;;;;14.18;11.63;;;;;;;17.98;39.81;100501.78;4976159;28;20057;-76
2021/01/02 06:20:16;;;;;;;13.70;12.27;;;;;;;18.00;39.80;100507.00;5004759;28;20054;-75
2021/01/02 06:22:43;;;;;;;13.82;12.18;;;;;;;17.96;39.75;100506.28;4990324;28;20615;-75
2021/01/02 06:25:11;;;;;;;16.88;13.18;;;;;;;17.96;39.68;100508.06;4992721;28;20404;-75
2021/01/02 06:27:45;;;;;;;14.95;12.38;;;;;;;17.98;39.88;100509.72;5022777;28;20052;-75
2021/01/02 06:30:18;;;;;;;13.77;11.77;;;;;;;17.95;39.88;100509.88;5022945;28;20618;-75
2021/01/02 06:32:47;;;;;;;13.30;11.90;;;;;;;17.96;39.62;100508.91;5004689;28;20140;-76
2021/01/02 06:35:13;;;;;;;15.00;12.48;;;;;;;17.97;39.56;100512.44;5024007;28;20081;-75
2021/01/02 06:37:48;;;;;;;13.85;11.50;;;;;;;17.96;39.88;100513.38;4990205;28;20121;-75
2021/01/02 06:40:27;;;;;;;12.90;11.00;;;;;;;17.96;39.92;100516.00;4991007;28;20048;-75
2021/01/02 06:42:53;;;;;;;13.02;11.60;;;;;;;17.96;39.56;100519.50;4991971;28;20162;-76
2021/01/02 06:45:46;;;;;;;16.65;12.70;;;;;;;17.97;39.76;100523.88;5024295;28;20139;-75
2021/01/02 06:48:17;;;;;;;13.90;12.18;;;;;;;17.96;39.64;100527.44;4980779;28;20535;-75
2021/01/02 06:50:45;;;;;;;13.35;11.68;;;;;;;17.97;39.55;100525.69;4988956;28;20057;-76
2021/01/02 06:53:26;;;;;;;15.18;13.25;;;;;;;17.97;39.83;100530.97;5022814;28;20737;-75
2021/01/02 06:56:00;;;;;;;14.25;12.13;;;;;;;17.97;39.63;100531.84;4990068;28;20072;-75
2021/01/02 06:58:48;;;;;;;13.23;11.73;;;;;;;17.96;40.03;100539.84;4992239;28;20092;-75
2021/01/02 07:01:17;;;;;;;13.45;12.05;;;;;;;17.96;39.90;100540.69;4988089;28;20045;-76
2021/01/02 07:03:44;;;;;;;13.18;11.85;;;;;;;17.94;39.71;100536.38;5007914;28;20415;-76
2021/01/02 07:06:37;;;;;;;12.55;11.27;;;;;;;17.94;39.83;100541.69;4991510;28;20033;-76
2021/01/02 07:09:15;;;;;;;13.90;11.85;;;;;;;17.95;39.73;100549.59;4988450;28;20050;-75
2021/01/02 07:11:43;;;;;;;13.80;11.40;;;;;;;17.97;39.51;100546.88;4990628;28;20076;-75
2021/01/02 07:14:12;;;;;;;13.27;11.45;;;;;;;17.94;39.59;100554.94;5011389;28;20144;-75
2021/01/02 07:16:47;;;;;;;13.23;11.25;;;;;;;17.95;39.61;100554.00;5010806;28;20572;-75
2021/01/02 07:19:26;;;;;;;11.90;10.70;;;;;;;17.94;39.47;100558.47;5011804;28;20033;-76
2021/01/02 07:21:59;;;;;;;12.27;10.98;;;;;;;17.95;39.55;100559.31;4991968;28;20215;-75
2021/01/02 07:24:36;;;;;;;14.15;11.75;;;;;;;17.91;39.51;100557.69;4978228;28;20100;-76
2021/01/02 07:27:05;;;;;;;14.98;11.70;;;;;;;17.91;39.60;100562.97;5006457;28;20033;-76
2021/01/02 07:29:43;;;;;;;14.18;11.82;;;;;;;17.93;39.56;100561.19;4998857;28;20045;-76
2021/01/02 07:32:17;;;;;;;12.75;10.75;;;;;;;17.91;39.69;100563.81;5007895;28;20041;-76
2021/01/02 07:35:11;;;;;;;12.77;11.48;;;;;;;17.92;39.67;100567.34;5009309;28;20484;-75
2021/01/02 07:37:39;;;;;;;11.73;10.50;;;;;;;17.87;39.89;100570.19;4994475;28;20658;-75
2021/01/02 07:40:14;;;;;;;20.50;16.50;;;;;;;17.40;37.41;100572.94;4993949;28;20033;-74
2021/01/02 07:42:54;;;;;;;23.95;19.38;;;;;;;16.04;35.12;100573.31;5023803;28;20049;-74
2021/01/02 07:45:23;;;;;;;25.17;20.88;;;;;;;15.81;34.77;100577.59;4995367;28;20102;-74
2021/01/02 07:47:50;;;;;;;22.65;18.00;;;;;;;16.91;36.47;100570.34;4992558;28;20125;-74
2021/01/02 07:50:18;;;;;;;19.65;15.20;;;;;;;17.32;36.79;100583.81;5007869;28;20133;-74
2021/01/02 07:52:59;;;;;;;17.73;12.98;;;;;;;17.54;37.54;100586.50;5004216;28;20481;-74
2021/01/02 07:55:33;;;;;;;16.98;13.15;;;;;;;17.60;37.21;100583.63;4976367;28;20041;-74
2021/01/02 07:58:00;;;;;;;20.40;13.20;;;;;;;17.49;37.49;100581.38;5006977;28;20057;-74
2021/01/02 08:00:26;;;;;;;19.25;12.73;;;;;;;17.57;37.19;100586.38;4990770;28;21413;-73
2021/01/02 08:02:52;;;;;;;17.23;12.07;;;;;;;17.64;37.23;100589.66;4990469;28;20064;-74
2021/01/02 08:05:23;;;;;;;14.25;11.82;;;;;;;17.67;37.37;100589.53;4995482;28;20037;-74
2021/01/02 08:07:55;;;;;;;13.10;10.52;;;;;;;17.66;37.62;100595.75;5021454;28;20038;-72
2021/01/02 08:10:21;;;;;;;14.85;11.40;;;;;;;17.64;37.85;100594.94;4990652;28;20416;-74
2021/01/02 08:12:50;;;;;;;15.77;11.00;;;;;;;17.61;37.98;100605.63;4971338;28;20054;-74
2021/01/02 08:15:35;;;;;;;18.17;11.68;;;;;;;17.76;38.34;100602.41;5024234;28;20054;-77
2021/01/02 08:18:07;;;;;;;15.00;10.20;;;;;;;17.81;38.72;100605.72;5018643;28;20046;-77
2021/01/02 08:20:34;;;;;;;20.48;11.65;;;;;;;17.93;38.42;100617.63;5016463;28;20133;-74
2021/01/02 08:23:09;;;;;;;16.50;11.65;;;;;;;17.93;38.12;100611.50;4990960;28;20042;-78
2021/01/02 08:25:35;;;;;;;13.35;10.82;;;;;;;17.98;38.60;100614.81;4970368;28;20140;-78
2021/01/02 08:28:03;;;;;;;10.95;9.20;;;;;;;18.10;38.51;100618.75;5020547;28;20049;-76
2021/01/02 08:30:29;;;;;;;12.02;9.95;;;;;;;18.08;38.38;100613.53;4985169;28;20045;-77
2021/01/02 08:32:56;;;;;;;16.20;11.15;;;;;;;18.16;38.32;100621.13;4988369;28;20089;-73
2021/01/02 08:35:39;;;;;;;13.13;10.93;;;;;;;18.21;38.89;100613.00;4990690;28;20081;-79
2021/01/02 08:38:13;;;;;;;14.13;10.87;;;;;;;18.35;38.24;100624.75;4989643;28;20050;-76
2021/01/02 08:40:42;;;;;;;17.15;11.57;;;;;;;18.56;37.61;100622.09;4970153;28;20042;-74
2021/01/02 08:43:23;;;;;;;15.20;10.75;;;;;;;18.51;37.74;100629.38;5020062;28;20983;-72
2021/01/02 08:45:49;;;;;;;11.20;9.32;;;;;;;18.43;37.73;100620.91;5003335;28;20050;-72
2021/01/02 08:48:19;;;;;;;12.10;9.45;;;;;;;18.40;37.96;100636.94;4990514;28;20129;-78
2021/01/02 08:50:45;;;;;;;13.90;9.65;;;;;;;18.47;37.78;100638.41;5005197;28;20033;-79
2021/01/02 08:53:33;;;;;;;15.05;11.45;;;;;;;18.43;37.72;100637.66;4990247;28;20038;-72
2021/01/02 08:56:27;;;;;;;13.82;11.15;;;;;;;18.39;38.13;100637.88;4986943;28;20041;-73
2021/01/02 08:58:53;;;;;;;12.73;9.90;;;;;;;18.41;38.46;100638.66;4984402;28;20050;-71
2021/01/02 09:01:19;;;;;;;13.10;9.98;;;;;;;18.35;39.38;100639.78;4979004;28;20108;-71
2021/01/02 09:03:45;;;;;;;10.25;8.15;;;;;;;18.32;39.84;100643.41;4985941;28;20087;-69
2021/01/02 09:06:24;;;;;;;10.88;8.55;;;;;;;18.56;38.80;100639.81;4984965;28;20055;-67
2021/01/02 09:09:07;;;;;;;13.05;8.98;;;;;;;18.66;39.14;100642.00;4985063;28;20049;-75
2021/01/02 09:11:51;;;;;;;11.02;8.75;;;;;;;18.63;39.89;100639.50;4987634;28;20399;-74
2021/01/02 09:14:18;;;;;;;9.95;7.45;;;;;;;18.70;39.70;100644.53;5007253;28;20128;-77
2021/01/02 09:17:03;;;;;;;9.55;6.78;;;;;;;18.73;39.33;100645.25;4990266;28;20145;-76
2021/01/02 09:19:29;;;;;;;7.22;6.40;;;;;;;18.72;39.34;100646.19;5003609;28;20041;-78
2021/01/02 09:21:55;;;;;;;10.25;6.75;;;;;;;18.77;39.42;100645.97;4976549;28;20503;-77
2021/01/02 09:24:22;;;;;;;8.55;6.13;;;;;;;18.80;38.95;100644.06;4994792;28;20038;-76
2021/01/02 09:26:49;;;;;;;7.65;6.28;;;;;;;18.82;39.11;100651.94;5006693;28;20411;-78
2021/01/02 09:29:17;;;;;;;19.88;11.80;;;;;;;18.26;38.52;100648.97;4996772;28;20053;-78
2021/01/02 09:31:43;;;;;;;15.55;10.32;;;;;;;18.68;38.44;100653.41;4973903;28;20069;-78
2021/01/02 09:34:10;;;;;;;18.48;8.43;;;;;;;18.80;39.20;100652.00;5007427;28;20045;-78
2021/01/02 09:36:37;;;;;;;22.08;7.72;;;;;;;18.88;39.28;100654.34;4976016;28;20168;-77
2021/01/02 09:39:04;;;;;;;9.60;6.85;;;;;;;18.92;39.40;100658.59;4997073;28;20099;-77
2021/01/02 09:41:30;;;;;;;12.05;8.43;;;;;;;18.94;39.49;100662.06;4976254;28;20034;-78
2021/01/02 09:43:58;;;;;;;14.13;6.50;;;;;;;18.91;39.51;100661.31;4976306;28;20096;-77
2021/01/02 09:46:26;;;;;;;28.15;19.27;;;;;;;17.92;35.92;100662.69;5023121;28;20040;-73
2021/01/02 09:48:55;;;;;;;32.05;22.13;;;;;;;17.53;34.47;100658.88;5005258;28;20080;-71
2021/01/02 09:51:24;;;;;;;30.17;21.50;;;;;;;17.50;34.06;100656.34;5004671;28;20672;-72
2021/01/02 09:53:51;;;;;;;31.65;23.10;;;;;;;17.28;34.06;100662.44;4994483;28;20051;-72
2021/01/02 09:56:18;;;;;;;31.58;22.85;;;;;;;17.12;35.01;100663.94;4989884;28;20045;-72
2021/01/02 09:58:44;;;;;;;32.55;22.05;;;;;;;17.24;33.78;100657.31;5004799;28;20026;-72
2021/01/02 10:01:13;;;;;;;26.80;20.20;;;;;;;17.19;33.56;100663.66;4987780;28;20096;-73
2021/01/02 10:03:39;;;;;;;28.73;21.30;;;;;;;17.10;33.37;100657.81;4993271;28;20050;-73
2021/01/02 10:06:05;;;;;;;26.73;19.33;;;;;;;16.98;33.70;100667.91;5007628;28;20034;-72
2021/01/02 20:09:11;;;;;;;78.22;37.50;;;;;;;18.31;41.48;100792.75;5076472;27;20364;-71
2021/01/02 20:11:37;;;;;;;61.00;37.53;;;;;;;18.39;41.29;100788.94;4683520;28;10000569;-72
2021/01/02 20:14:02;;;;;;;59.05;39.80;;;;;;;18.44;41.76;100792.28;5066506;28;20122;-72
2021/01/02 20:16:32;;;;;;;61.08;38.67;;;;;;;18.50;41.33;100797.34;5032217;28;20047;-72
2021/01/02 20:18:59;;;;;;;73.38;44.38;;;;;;;18.55;42.14;100791.84;5016876;28;20044;-72
2021/01/02 20:21:31;;;;;;;59.83;38.95;;;;;;;18.63;41.83;100792.38;5051144;28;20764;-72
2021/01/02 20:23:59;;;;;;;65.65;38.65;;;;;;;18.72;42.21;100793.81;5039262;28;20111;-72
2021/01/02 20:26:30;;;;;;;62.72;40.05;;;;;;;18.74;41.19;100800.78;5032055;28;20056;-73
2021/01/02 20:28:56;;;;;;;63.17;41.42;;;;;;;18.79;42.19;100796.16;5018202;28;20080;-72
2021/01/02 20:31:22;;;;;;;64.50;41.40;;;;;;;18.81;41.17;100796.97;5031824;28;20049;-71
2021/01/02 20:33:48;;;;;;;60.25;39.53;;;;;;;18.84;40.78;100799.47;5049886;28;20997;-71
2021/01/02 20:36:22;;;;;;;66.68;40.10;;;;;;;18.89;40.42;100803.72;5048471;28;20041;-71
2021/01/02 20:38:53;;;;;;;57.92;40.70;;;;;;;18.92;40.53;100807.16;5066192;28;20096;-70
2021/01/02 20:41:21;;;;;;;69.28;41.08;;;;;;;18.94;40.25;100809.72;5042533;28;20218;-71
2021/01/02 20:43:49;;;;;;;71.10;42.85;;;;;;;18.97;40.31;100807.81;5046864;28;20435;-71
2021/01/02 20:46:29;;;;;;;59.92;39.45;;;;;;;18.99;40.13;100813.06;5049438;28;20063;-71
2021/01/02 20:48:55;;;;;;;61.30;42.55;;;;;;;19.03;40.78;100816.44;5046750;28;20727;-70
2021/01/02 20:51:37;;;;;;;62.03;41.47;;;;;;;19.00;40.81;100820.09;5049114;28;20029;-71
2021/01/02 20:54:03;;;;;;;57.20;39.42;;;;;;;19.04;40.52;100818.19;5049737;28;20033;-70
2021/01/02 20:56:33;;;;;;;58.25;39.33;;;;;;;19.03;40.42;100814.66;5051833;28;20036;-70
2021/01/02 20:58:59;;;;;;;58.85;40.10;;;;;;;19.07;40.37;100818.91;5048712;28;20106;-70
2021/01/02 21:01:29;;;;;;;59.85;38.85;;;;;;;19.07;40.40;100820.69;5042938;28;20785;-70
2021/01/02 21:03:56;;;;;;;60.80;39.25;;;;;;;19.10;40.25;100826.75;5035976;28;20037;-70
2021/01/02 21:06:29;;;;;;;54.78;39.30;;;;;;;19.11;40.73;100831.13;5057736;28;20033;-70
2021/01/02 21:08:56;;;;;;;59.03;38.97;;;;;;;19.14;40.92;100833.66;5047911;28;20049;-70
2021/01/02 21:11:25;;;;;;;55.08;35.83;;;;;;;19.13;40.74;100834.56;5047125;28;20348;-70
2021/01/02 21:13:52;;;;;;;57.70;37.28;;;;;;;19.15;40.57;100840.69;5047794;28;20052;-70
2021/01/02 21:16:37;;;;;;;55.08;38.03;;;;;;;19.17;40.46;100836.16;5049635;28;20842;-70
2021/01/02 21:19:10;;;;;;;52.30;36.58;;;;;;;19.21;39.93;100836.06;5027269;28;20081;-70
2021/01/02 21:21:41;;;;;;;49.95;34.97;;;;;;;19.21;39.98;100842.22;5036763;28;20045;-70
2021/01/02 21:24:08;;;;;;;50.88;35.05;;;;;;;19.23;39.75;100842.13;5017849;28;20120;-70
2021/01/02 21:26:42;;;;;;;51.25;34.40;;;;;;;19.23;40.08;100842.13;5017079;28;20183;-70
2021/01/02 21:29:10;;;;;;;52.28;34.63;;;;;;;19.26;40.15;100845.53;5033832;28;20198;-70
2021/01/02 21:31:49;;;;;;;51.60;35.85;;;;;;;19.27;40.30;100851.72;5027683;28;20818;-70
2021/01/02 21:34:19;;;;;;;48.95;35.85;;;;;;;19.28;40.48;100851.66;5007673;28;20551;-70
2021/01/02 21:36:55;;;;;;;51.70;34.03;;;;;;;19.28;40.12;100854.31;5033777;28;20120;-70